Time;durP1;ratioP1;P1;durP2;ratioP2;P2;SDS_P1;SDS_P2;PMS_P1;PMS_P2;Temp;Humidity;BMP_temperature;BMP_pressure;BME280_temperature;BME280_humidity;BME280_pressure;Samples;Min_cycle;Max_cycle;Signal;HPM_P1;HPM_P2
2021/05/26 00:01:26;;;;;;;3.83;1.00;;;8.50;99.90;;;7.69;85.33;97590.56;5124864;27;20118;-72
2021/05/26 00:03:53;;;;;;;5.38;0.80;;;8.50;99.90;;;7.82;82.95;97592.75;5117885;27;20423;-72
2021/05/26 00:06:20;;;;;;;5.07;0.80;;;8.50;99.90;;;7.83;83.18;97589.28;5125511;27;20047;-72
2021/05/26 00:08:47;;;;;;;7.25;1.20;;;8.50;99.90;;;7.82;83.87;97585.00;5129647;27;20043;-73
2021/05/26 00:11:17;;;;;;;5.65;0.88;;;8.60;99.90;;;7.88;83.31;97585.66;5128915;27;20043;-72
2021/05/26 00:13:46;;;;;;;5.82;0.93;;;8.60;99.90;;;7.95;83.52;97578.56;5127974;27;20419;-72
2021/05/26 00:16:15;;;;;;;5.15;0.80;;;8.70;99.90;;;7.94;83.50;97575.13;5116319;27;20039;-72
2021/05/26 00:18:43;;;;;;;4.47;1.10;;;8.70;99.90;;;8.08;82.08;97574.69;5127574;27;20104;-72
2021/05/26 00:21:10;;;;;;;2.90;0.90;;;8.70;99.90;;;7.97;83.48;97571.59;5098416;27;20649;-72
2021/05/26 00:23:37;;;;;;;6.30;1.00;;;8.70;99.90;;;8.03;82.48;97557.63;5121995;27;20100;-72
2021/05/26 00:26:05;;;;;;;3.15;0.77;;;8.70;99.90;;;8.04;83.24;97559.31;5117678;27;20067;-72
2021/05/26 00:28:32;;;;;;;5.15;1.02;;;8.70;99.90;;;7.90;83.95;97552.03;5096960;27;20535;-71
2021/05/26 00:31:00;;;;;;;3.42;1.05;;;8.70;99.90;;;7.96;82.88;97557.00;5124869;27;20039;-72
2021/05/26 00:33:28;;;;;;;5.35;1.15;;;8.70;99.90;;;7.93;82.86;97555.34;5126075;27;20148;-72
2021/05/26 00:35:55;;;;;;;2.40;0.85;;;8.60;99.90;;;7.98;83.34;97552.59;5116330;27;20411;-72
2021/05/26 00:38:22;;;;;;;4.30;1.05;;;8.60;99.90;;;7.95;83.11;97552.72;5119938;27;20051;-72
2021/05/26 00:40:49;;;;;;;4.38;1.00;;;8.60;99.90;;;7.81;84.02;97541.97;5114425;27;20130;-72
2021/05/26 00:43:17;;;;;;;4.45;1.10;;;8.70;99.90;;;7.99;83.54;97545.72;5115442;27;20036;-72
2021/05/26 00:45:46;;;;;;;4.63;0.98;;;8.70;99.90;;;7.91;83.53;97540.78;5119270;27;20039;-72
2021/05/26 00:48:13;;;;;;;9.10;1.15;;;8.70;99.90;;;7.86;83.23;97538.34;5099624;27;20158;-72
2021/05/26 00:50:41;;;;;;;6.00;1.00;;;8.70;99.90;;;7.95;83.34;97534.63;5126293;27;20038;-72
2021/05/26 00:53:11;;;;;;;4.43;0.95;;;8.70;99.90;;;7.99;82.84;97533.63;5127003;27;20115;-72
2021/05/26 00:55:39;;;;;;;4.40;0.98;;;8.70;99.90;;;7.85;84.90;97535.81;5127221;27;20124;-72
2021/05/26 00:58:07;;;;;;;6.38;1.17;;;8.70;99.90;;;7.91;84.66;97533.03;5099705;27;20065;-71
2021/05/26 01:00:38;;;;;;;6.18;1.08;;;8.80;99.90;;;7.79;86.42;97523.09;5115524;27;20111;-72
2021/05/26 01:03:07;;;;;;;4.00;0.90;;;8.80;99.90;;;7.92;85.46;97521.81;5105852;28;20035;-72
2021/05/26 01:05:34;;;;;;;8.35;1.02;;;8.80;99.90;;;7.94;83.57;97522.59;5117664;27;20043;-72
2021/05/26 01:08:01;;;;;;;4.95;0.90;;;8.80;99.90;;;8.02;82.34;97515.41;5127810;27;20046;-72
2021/05/26 01:10:31;;;;;;;6.22;1.00;;;8.80;99.90;;;7.89;84.05;97519.31;5106063;28;20039;-72
2021/05/26 01:12:58;;;;;;;6.65;1.25;;;8.90;99.90;;;7.81;85.60;97527.31;5121311;27;20453;-72
2021/05/26 01:15:27;;;;;;;5.80;1.10;;;8.90;99.90;;;7.57;88.08;97551.34;5103688;28;20100;-73
2021/05/26 01:17:54;;;;;;;4.95;1.30;;;8.90;99.90;;;7.64;89.27;97516.66;5106787;28;20061;-73
2021/05/26 01:20:30;;;;;;;9.77;1.42;;;8.80;99.90;;;7.78;88.60;97511.06;5128484;28;20127;-73
2021/05/26 01:22:59;;;;;;;3.33;1.05;;;8.70;99.90;;;7.75;88.01;97514.59;5094002;28;20051;-73
2021/05/26 01:25:28;;;;;;;4.93;1.38;;;8.60;99.90;;;7.65;88.34;97503.72;5114884;28;20070;-72
2021/05/26 01:27:58;;;;;;;4.45;1.00;;;8.40;99.90;;;7.52;89.34;97502.41;5122492;28;20055;-72
2021/05/26 01:30:25;;;;;;;9.05;1.30;;;8.30;99.90;;;7.41;89.95;97507.06;5127391;28;20075;-72
2021/05/26 01:32:52;;;;;;;7.30;1.27;;;8.30;99.90;;;7.47;88.88;97514.63;5121116;28;20055;-72
2021/05/26 01:35:20;;;;;;;6.85;1.40;;;8.30;99.90;;;7.45;88.72;97508.66;5124867;27;20093;-72
2021/05/26 01:37:48;;;;;;;7.05;1.25;;;8.30;99.90;;;7.40;89.47;97503.63;5124948;27;21143;-72
2021/05/26 01:40:18;;;;;;;6.03;1.17;;;8.30;99.90;;;7.45;88.49;97499.16;5127141;27;20092;-72
2021/05/26 01:42:46;;;;;;;5.22;1.20;;;8.30;99.90;;;7.51;88.26;97500.72;5130052;27;20235;-72
2021/05/26 01:45:16;;;;;;;8.38;1.10;;;8.30;99.90;;;7.72;85.77;97491.44;5111283;27;20100;-72
2021/05/26 01:47:48;;;;;;;5.82;1.25;;;8.30;99.90;;;7.65;86.72;97477.88;5113008;27;20062;-72
2021/05/26 01:50:22;;;;;;;6.85;1.13;;;8.30;99.90;;;7.72;87.31;97470.78;5128438;27;20092;-72
2021/05/26 01:53:01;;;;;;;8.55;1.30;;;8.30;99.90;;;7.70;87.48;97464.81;5125788;27;20186;-72
2021/05/26 01:55:28;;;;;;;3.40;0.77;;;8.40;99.90;;;7.80;86.13;97458.47;5104737;27;20099;-72
2021/05/26 01:57:56;;;;;;;6.97;1.65;;;8.40;99.90;;;7.53;89.81;97465.38;5111238;27;20514;-71
2021/05/26 02:00:23;;;;;;;4.95;1.15;;;8.30;99.90;;;7.33;90.91;97463.41;5122944;27;20062;-72
2021/05/26 02:02:51;;;;;;;8.07;2.03;;;8.30;99.90;;;7.24;90.78;97459.38;5106475;27;20502;-72
2021/05/26 02:05:19;;;;;;;4.47;1.10;;;8.30;99.90;;;7.18;91.92;97464.72;5121418;27;20051;-72
2021/05/26 02:07:47;;;;;;;4.55;1.27;;;8.30;99.90;;;7.03;93.35;97478.94;5128409;27;20468;-72
2021/05/26 02:10:17;;;;;;;10.00;1.67;;;8.30;99.90;;;7.02;94.77;97481.56;5124563;27;20047;-72
2021/05/26 02:12:45;;;;;;;4.93;1.10;;;8.30;99.90;;;7.22;93.22;97474.06;5129393;27;20076;-72
2021/05/26 02:15:14;;;;;;;5.43;1.73;;;8.20;99.90;;;7.40;92.12;97462.31;5127197;27;20069;-72
2021/05/26 02:17:41;;;;;;;5.55;1.52;;;8.10;99.90;;;7.39;91.06;97449.44;5122815;27;20043;-72
2021/05/26 02:20:11;;;;;;;4.85;1.25;;;8.10;99.90;;;7.47;90.56;97439.72;5109564;27;20517;-72
2021/05/26 02:22:38;;;;;;;9.18;1.65;;;8.10;99.90;;;7.42;89.35;97437.28;5106968;27;20103;-73
2021/05/26 02:25:07;;;;;;;7.53;1.33;;;8.10;99.90;;;7.05;91.45;97440.19;5129669;27;20035;-73
2021/05/26 02:27:34;;;;;;;9.80;1.48;;;8.20;99.90;;;7.11;91.50;97438.25;5128100;27;20035;-72
2021/05/26 02:30:01;;;;;;;6.82;1.10;;;8.10;99.90;;;7.17;91.61;97432.06;5124238;27;20521;-72
2021/05/26 02:32:28;;;;;;;7.22;2.00;;;8.10;99.90;;;7.28;91.54;97424.00;5111167;27;20036;-72
2021/05/26 02:35:00;;;;;;;6.15;1.40;;;8.10;99.90;;;7.20;91.98;97418.22;5123289;27;20103;-72
2021/05/26 02:37:28;;;;;;;7.97;1.20;;;8.20;99.90;;;7.36;90.04;97413.41;5082255;28;20569;-72
2021/05/26 02:39:55;;;;;;;4.32;1.02;;;8.10;99.90;;;7.49;88.03;97406.94;5127371;27;20035;-72
2021/05/26 02:42:22;;;;;;;6.70;1.23;;;8.00;99.90;;;7.37;88.83;97415.09;5127134;27;20500;-72
2021/05/26 02:44:49;;;;;;;5.20;1.42;;;8.00;99.90;;;7.25;89.67;97412.03;5127131;27;20506;-72
2021/05/26 02:47:16;;;;;;;7.75;1.17;;;7.90;99.90;;;7.30;89.16;97412.72;5123637;27;20040;-72
2021/05/26 02:49:43;;;;;;;5.53;1.08;;;7.90;99.90;;;7.28;88.67;97418.81;5127658;27;20484;-72
2021/05/26 02:52:10;;;;;;;6.97;1.30;;;7.90;99.90;;;7.35;88.48;97406.56;5127742;27;20043;-71
2021/05/26 02:54:37;;;;;;;8.50;1.60;;;7.80;99.90;;;7.33;88.37;97397.13;5125734;27;20088;-72
2021/05/26 02:57:04;;;;;;;5.30;1.58;;;7.80;99.90;;;7.35;87.92;97402.25;5129751;27;20043;-72
2021/05/26 02:59:31;;;;;;;7.38;1.25;;;7.90;99.90;;;7.29;88.55;97395.53;5129402;27;20131;-72
2021/05/26 03:01:58;;;;;;;8.68;1.13;;;7.90;99.90;;;7.36;88.70;97388.44;5123622;27;20043;-72
2021/05/26 03:04:25;;;;;;;5.18;1.20;;;7.90;99.90;;;7.24;89.12;97388.84;5124169;27;20480;-72
2021/05/26 03:06:52;;;;;;;10.80;1.60;;;7.90;99.90;;;7.44;87.58;97391.59;5096574;28;20044;-72
2021/05/26 03:09:20;;;;;;;7.03;1.30;;;7.90;99.90;;;7.31;88.34;97382.56;5115851;27;20136;-72
2021/05/26 03:11:47;;;;;;;7.07;1.20;;;7.90;99.90;;;7.29;89.00;97385.19;5130684;27;20043;-71
2021/05/26 03:14:14;;;;;;;2.85;1.02;;;7.90;99.90;;;7.26;89.35;97389.63;5128814;27;20039;-71
2021/05/26 03:16:41;;;;;;;5.97;1.33;;;7.90;99.90;;;7.30;89.21;97383.47;5110195;27;20446;-72
2021/05/26 03:19:08;;;;;;;4.75;0.90;;;7.90;99.90;;;7.37;88.83;97379.81;5130488;27;20035;-72
2021/05/26 03:21:35;;;;;;;4.00;1.00;;;7.90;99.90;;;7.30;89.39;97383.47;5111938;27;20140;-72
2021/05/26 03:24:03;;;;;;;4.63;1.20;;;7.90;99.90;;;7.31;89.88;97380.81;5129583;27;20116;-72
2021/05/26 03:26:30;;;;;;;5.10;1.52;;;7.90;99.90;;;7.29;90.75;97376.63;5125017;27;20050;-71
2021/05/26 03:28:57;;;;;;;7.97;1.85;;;7.90;99.90;;;7.23;91.44;97367.34;5129075;27;20040;-71
2021/05/26 03:31:24;;;;;;;8.43;1.33;;;7.90;99.90;;;7.26;90.80;97363.81;5101026;27;20052;-71
2021/05/26 03:33:51;;;;;;;3.17;1.10;;;7.90;99.90;;;7.25;90.66;97372.44;5106131;27;20086;-72
2021/05/26 03:36:17;;;;;;;15.77;2.05;;;7.90;99.90;;;7.24;91.24;97370.75;5130513;27;20061;-72
2021/05/26 03:38:44;;;;;;;6.55;1.27;;;8.00;99.90;;;7.23;91.02;97372.50;5128648;27;20036;-72
2021/05/26 03:41:11;;;;;;;7.68;1.70;;;7.90;99.90;;;7.18;92.09;97363.22;5112384;27;20068;-72
2021/05/26 03:43:38;;;;;;;7.47;1.58;;;7.90;99.90;;;7.21;91.62;97368.28;5127843;27;20179;-72
2021/05/26 03:46:05;;;;;;;6.60;1.40;;;8.00;99.90;;;7.21;92.25;97363.97;5126424;27;20092;-72
2021/05/26 03:48:33;;;;;;;6.90;1.52;;;8.00;99.90;;;7.16;92.96;97368.44;5121268;27;20055;-72
2021/05/26 03:51:00;;;;;;;3.05;1.42;;;8.00;99.90;;;7.17;92.83;97366.69;5128288;27;20163;-72
2021/05/26 03:53:27;;;;;;;5.45;1.33;;;8.00;99.90;;;7.17;92.88;97370.13;5125096;27;20120;-72
2021/05/26 03:55:54;;;;;;;10.15;1.80;;;8.00;99.90;;;7.25;92.63;97352.66;5108893;27;20035;-72
2021/05/26 03:58:21;;;;;;;9.00;1.35;;;8.00;99.90;;;7.22;93.01;97360.47;5129439;27;20047;-72
2021/05/26 04:00:49;;;;;;;4.28;1.10;;;8.00;99.90;;;7.26;92.75;97349.16;5124556;27;20075;-72
2021/05/26 04:03:16;;;;;;;5.88;1.30;;;8.00;99.90;;;7.37;92.46;97342.78;5092718;27;20043;-72
2021/05/26 04:05:43;;;;;;;8.93;1.67;;;8.00;99.90;;;7.40;92.67;97342.69;5124536;27;20039;-72
2021/05/26 04:08:12;;;;;;;6.32;1.50;;;8.00;99.90;;;7.28;92.86;97331.06;5129440;27;20047;-72
2021/05/26 04:10:39;;;;;;;7.90;1.48;;;8.00;99.90;;;7.42;92.88;97335.75;5118298;27;20103;-72
2021/05/26 04:13:06;;;;;;;9.20;1.40;;;8.10;99.90;;;7.41;93.50;97331.47;5127722;27;20047;-71
2021/05/26 04:15:33;;;;;;;9.00;1.75;;;8.10;99.90;;;7.36;93.88;97329.03;5125756;27;20103;-72
2021/05/26 04:18:05;;;;;;;9.77;1.88;;;8.10;99.90;;;7.41;93.31;97311.69;5129947;27;20043;-72
2021/05/26 04:20:33;;;;;;;6.63;1.23;;;8.20;99.90;;;7.53;93.38;97324.16;5089622;27;20039;-71
2021/05/26 04:23:01;;;;;;;7.72;1.33;;;8.20;99.90;;;7.65;93.37;97314.28;5110886;27;20039;-72
2021/05/26 04:25:28;;;;;;;10.38;1.45;;;8.30;99.90;;;7.62;93.54;97314.38;5128529;27;20385;-71
2021/05/26 04:27:55;;;;;;;9.93;1.58;;;8.30;99.90;;;7.62;93.25;97316.97;5104098;27;20491;-71
2021/05/26 04:30:23;;;;;;;10.20;1.98;;;8.30;99.90;;;7.71;92.80;97311.50;5120641;27;20035;-71
2021/05/26 04:32:50;;;;;;;8.27;1.40;;;8.30;99.90;;;7.73;93.08;97323.47;5122843;27;20059;-71
2021/05/26 04:35:17;;;;;;;10.02;1.48;;;8.30;99.90;;;7.51;93.88;97328.53;5119019;27;20461;-71
2021/05/26 04:37:45;;;;;;;6.82;1.52;;;8.40;99.90;;;7.61;93.46;97300.63;5116423;27;20046;-71
2021/05/26 04:40:13;;;;;;;9.07;1.65;;;8.30;99.90;;;7.64;93.72;97304.84;5110124;27;20506;-71
2021/05/26 04:42:40;;;;;;;6.43;1.70;;;8.30;99.90;;;7.72;94.00;97303.69;5124809;27;20472;-71
2021/05/26 04:45:08;;;;;;;4.05;1.50;;;8.40;99.90;;;7.83;93.18;97299.88;5100655;28;20081;-71
2021/05/26 04:47:35;;;;;;;12.18;1.65;;;8.40;99.90;;;7.64;94.43;97305.72;5128200;27;20051;-71
2021/05/26 04:50:03;;;;;;;8.38;1.40;;;8.50;99.90;;;7.71;94.46;97302.00;5129226;27;20088;-71
2021/05/26 04:52:30;;;;;;;8.43;1.90;;;8.50;99.90;;;7.70;94.48;97302.06;5123688;27;20043;-71
2021/05/26 04:54:57;;;;;;;5.95;1.48;;;8.60;99.90;;;7.71;94.22;97299.41;5113552;27;20076;-71
2021/05/26 04:57:24;;;;;;;7.15;1.50;;;8.60;99.90;;;7.74;93.92;97313.97;5127284;27;20107;-71
2021/05/26 04:59:51;;;;;;;7.63;1.20;;;8.60;99.90;;;7.64;94.46;97317.75;5114119;27;20040;-71
2021/05/26 05:02:18;;;;;;;9.38;1.38;;;8.50;99.90;;;7.74;94.17;97301.06;5123497;27;20039;-71
2021/05/26 05:04:45;;;;;;;5.47;1.38;;;8.60;99.90;;;7.58;93.75;97311.06;5122420;27;20031;-71
2021/05/26 05:07:12;;;;;;;6.78;1.25;;;8.60;99.90;;;7.76;92.83;97296.66;5121290;27;20043;-71
2021/05/26 05:09:39;;;;;;;9.40;1.50;;;8.60;99.90;;;7.73;93.20;97302.78;5114109;27;20150;-71
2021/05/26 05:12:06;;;;;;;8.60;1.50;;;8.70;99.90;;;7.80;92.79;97282.75;5125714;27;20046;-71
2021/05/26 05:14:34;;;;;;;6.40;1.20;;;8.70;99.90;;;7.86;93.05;97290.25;5088100;28;20059;-71
2021/05/26 05:17:01;;;;;;;9.45;2.00;;;8.80;99.90;;;7.91;92.98;97283.22;5129105;28;20043;-71
2021/05/26 05:19:28;;;;;;;5.43;0.93;;;8.80;99.90;;;7.80;93.34;97298.25;5117042;28;20477;-71
2021/05/26 05:21:55;;;;;;;6.40;1.30;;;8.80;99.90;;;7.97;92.70;97290.72;5120532;28;20142;-71
2021/05/26 05:24:22;;;;;;;8.60;1.58;;;8.80;99.90;;;7.81;93.51;97281.84;5125803;28;20035;-71
2021/05/26 05:26:49;;;;;;;9.45;1.40;;;8.90;99.90;;;8.00;92.49;97292.34;5100889;28;20046;-71
2021/05/26 05:29:16;;;;;;;7.35;1.48;;;8.90;99.90;;;8.02;92.99;97275.03;5102267;28;20096;-71
2021/05/26 05:31:43;;;;;;;6.82;1.33;;;8.90;99.90;;;8.07;91.70;97280.03;5122232;28;20058;-71
2021/05/26 05:34:12;;;;;;;3.35;1.10;;;9.00;99.90;;;8.07;90.90;97285.19;5127845;28;20039;-71
2021/05/26 05:36:39;;;;;;;5.72;1.52;;;9.00;99.90;;;8.18;90.65;97276.13;5126728;28;20047;-71
2021/05/26 05:39:06;;;;;;;3.65;0.98;;;9.00;99.90;;;8.40;90.73;97274.50;5116294;28;20035;-71
2021/05/26 05:41:33;;;;;;;10.18;1.52;;;9.10;99.90;;;8.38;90.65;97271.97;5107237;28;20111;-71
2021/05/26 05:44:00;;;;;;;8.20;1.55;;;9.00;99.90;;;8.06;91.58;97284.38;5125588;28;20035;-71
2021/05/26 05:46:27;;;;;;;5.55;1.05;;;9.00;99.90;;;7.97;91.79;97290.72;5114455;28;20481;-71
2021/05/26 05:48:58;;;;;;;6.28;1.55;;;9.10;99.90;;;8.12;90.44;97267.81;5118780;28;20531;-71
2021/05/26 05:51:25;;;;;;;8.35;1.30;;;9.10;99.90;;;8.22;89.19;97253.59;5104231;28;20481;-71
2021/05/26 05:53:52;;;;;;;8.50;1.55;;;9.10;99.90;;;7.97;89.83;97287.28;5126552;28;20137;-71
2021/05/26 05:56:19;;;;;;;7.63;1.38;;;9.00;99.90;;;8.05;88.43;97261.16;5126828;28;20111;-71
2021/05/26 05:58:46;;;;;;;6.20;0.93;;;9.00;99.90;;;8.14;89.68;97272.00;5098584;28;20088;-71
2021/05/26 06:01:13;;;;;;;4.15;1.08;;;9.10;99.90;;;8.23;88.29;97290.63;5117934;28;20096;-71
2021/05/26 06:03:40;;;;;;;9.60;1.27;;;9.00;99.90;;;8.22;89.75;97284.63;5110102;28;20108;-71
2021/05/26 06:06:08;;;;;;;6.18;1.27;;;9.10;99.90;;;8.14;88.97;97290.09;5128819;28;20096;-71
2021/05/26 06:08:35;;;;;;;5.32;1.10;;;9.20;99.90;;;8.24;88.91;97274.25;5127234;28;20102;-72
2021/05/26 06:11:03;;;;;;;8.13;1.92;;;9.20;99.90;;;8.15;90.22;97273.69;5119842;28;20043;-72
2021/05/26 06:13:30;;;;;;;7.88;1.10;;;9.30;99.90;;;8.42;88.62;97265.81;5122792;28;20430;-71
2021/05/26 06:15:57;;;;;;;10.00;1.48;;;9.30;99.90;;;8.26;88.76;97275.03;5126065;28;20043;-72
2021/05/26 06:18:24;;;;;;;8.07;1.27;;;9.30;99.90;;;8.33;88.50;97274.72;5129062;28;20077;-71
2021/05/26 06:20:51;;;;;;;6.68;1.30;;;9.40;99.90;;;8.25;88.92;97287.09;5127544;28;20035;-71
2021/05/26 06:23:24;;;;;;;8.95;1.30;;;9.30;99.90;;;8.40;89.36;97279.69;5126983;27;20118;-71
2021/05/26 06:25:51;;;;;;;9.52;1.20;;;9.40;99.90;;;8.41;86.86;97263.28;5113366;27;20048;-71
2021/05/26 06:28:18;;;;;;;9.93;1.70;;;9.40;99.90;;;8.23;88.50;97286.31;5119535;27;20059;-71
2021/05/26 06:30:45;;;;;;;5.55;1.35;;;9.40;99.90;;;8.35;87.74;97290.19;5127845;27;20047;-71
2021/05/26 06:33:12;;;;;;;4.13;1.08;;;9.40;99.90;;;8.51;86.85;97286.13;5126107;27;20050;-71
2021/05/26 06:35:39;;;;;;;7.50;1.50;;;9.40;99.90;;;8.23;88.03;97286.31;5132225;27;20047;-71
2021/05/26 06:38:05;;;;;;;5.22;0.88;;;9.40;99.90;;;8.50;87.95;97268.91;5102986;27;20395;-72
2021/05/26 06:40:32;;;;;;;8.25;1.30;;;9.40;99.90;;;8.89;86.96;97277.75;5122594;27;20031;-73
2021/05/26 06:43:00;;;;;;;6.25;1.33;;;9.60;99.90;;;8.99;86.33;97260.94;5120825;27;20130;-72
2021/05/26 06:45:27;;;;;;;4.22;0.93;;;9.80;99.90;;;8.64;87.52;97280.47;5120382;27;20031;-72
2021/05/26 06:47:54;;;;;;;3.88;1.00;;;9.70;99.90;;;8.72;87.55;97266.34;5123596;27;20100;-72
2021/05/26 06:50:21;;;;;;;4.50;1.27;;;9.80;99.90;;;8.76;88.54;97254.13;5120044;27;20484;-72
2021/05/26 06:52:49;;;;;;;4.85;1.33;;;9.80;99.90;;;8.63;88.10;97269.28;5101652;27;20201;-71
2021/05/26 06:55:17;;;;;;;6.60;1.45;;;10.00;99.90;;;8.92;87.26;97264.69;5108782;27;20059;-71
2021/05/26 06:57:46;;;;;;;4.65;1.10;;;9.90;99.90;;;8.67;87.50;97272.63;5120882;27;20043;-71
2021/05/26 07:00:14;;;;;;;9.23;1.15;;;9.90;99.90;;;8.64;89.77;97258.03;5120164;27;20100;-72
2021/05/26 07:02:41;;;;;;;5.10;0.93;;;9.70;99.90;;;8.40;88.74;97277.09;5123834;27;20499;-72
2021/05/26 07:05:10;;;;;;;7.45;1.10;;;9.50;99.90;;;8.29;90.06;97252.47;5117235;27;20047;-72
2021/05/26 07:07:37;;;;;;;4.63;1.20;;;9.50;99.90;;;8.26;90.42;97260.34;5122223;27;20035;-71
2021/05/26 07:10:06;;;;;;;3.38;1.23;;;9.40;99.90;;;8.24;90.90;97248.38;5103648;27;20039;-72
2021/05/26 07:12:33;;;;;;;9.25;1.92;;;9.30;99.90;;;8.23;90.37;97263.03;5127703;27;20099;-71
2021/05/26 07:15:00;;;;;;;7.22;1.85;;;9.30;99.90;;;8.45;91.09;97249.31;5128149;27;20554;-71
2021/05/26 07:17:27;;;;;;;6.75;1.20;;;9.30;99.90;;;8.23;91.08;97260.44;5115747;27;20460;-71
2021/05/26 07:19:54;;;;;;;8.93;1.42;;;9.20;99.90;;;8.19;90.27;97253.75;5126946;27;21624;-71
2021/05/26 07:22:21;;;;;;;6.78;1.85;;;9.20;99.90;;;8.06;91.71;97253.34;5109904;27;20134;-72
2021/05/26 07:24:49;;;;;;;8.30;1.55;;;9.20;99.90;;;8.10;92.42;97244.59;5124516;27;20519;-70
2021/05/26 07:27:16;;;;;;;9.05;1.60;;;9.20;99.90;;;8.20;91.06;97228.72;5119317;27;20075;-71
2021/05/26 07:29:43;;;;;;;9.20;1.40;;;9.20;99.90;;;8.33;91.02;97240.28;5130857;27;20063;-73
2021/05/26 07:32:10;;;;;;;6.35;1.50;;;9.20;99.90;;;8.20;90.06;97252.81;5121104;27;20084;-71
2021/05/26 07:34:37;;;;;;;6.93;1.58;;;9.20;99.90;;;8.25;89.69;97244.88;5127745;27;20047;-71
2021/05/26 07:37:04;;;;;;;9.43;1.52;;;9.30;99.90;;;8.13;91.17;97262.56;5102397;27;21550;-72
2021/05/26 07:39:35;;;;;;;7.10;1.20;;;9.30;99.90;;;8.27;90.30;97245.69;5128230;27;20039;-72
2021/05/26 07:42:07;;;;;;;6.55;1.35;;;9.30;99.90;;;8.25;90.04;97250.06;5129216;27;20092;-72
2021/05/26 07:44:35;;;;;;;6.07;1.55;;;9.30;99.90;;;8.47;89.04;97250.13;5128690;27;20227;-71
2021/05/26 07:47:02;;;;;;;11.57;2.88;;;9.30;99.90;;;8.42;90.11;97239.13;5088041;27;20036;-71
2021/05/26 07:49:29;;;;;;;5.50;1.58;;;9.40;99.90;;;8.35;90.20;97228.97;5111453;27;20609;-71
2021/05/26 07:52:02;;;;;;;8.27;1.40;;;9.40;99.90;;;8.42;89.91;97254.63;5117552;27;20035;-72
2021/05/26 07:54:30;;;;;;;8.20;1.65;;;9.40;99.90;;;8.32;91.59;97257.50;5122744;27;20096;-71
2021/05/26 07:56:58;;;;;;;9.95;2.20;;;9.40;99.90;;;8.67;89.82;97233.81;5096304;27;20046;-71
2021/05/26 07:59:26;;;;;;;8.93;1.33;;;9.50;99.90;;;8.63;88.73;97235.66;5116602;27;20108;-71
2021/05/26 08:01:54;;;;;;;4.53;1.35;;;9.50;99.90;;;8.62;89.12;97228.81;5134627;27;20039;-71
2021/05/26 08:04:21;;;;;;;8.55;1.75;;;9.40;99.90;;;8.55;89.13;97264.44;5122212;27;20473;-71
2021/05/26 08:06:50;;;;;;;5.93;1.70;;;9.40;99.90;;;8.56;91.99;97241.97;5126789;27;20058;-72
2021/05/26 08:09:18;;;;;;;7.70;1.38;;;9.50;99.90;;;8.44;92.60;97226.94;5122954;27;20035;-72
2021/05/26 08:11:45;;;;;;;4.05;1.20;;;9.40;99.90;;;8.29;92.39;97252.47;5123095;27;20112;-72
2021/05/26 08:14:12;;;;;;;6.97;1.42;;;9.40;99.90;;;8.35;92.52;97246.22;5127871;27;20051;-72
2021/05/26 08:16:39;;;;;;;6.40;1.50;;;9.40;99.90;;;8.46;92.19;97241.50;5094316;28;20043;-72
2021/05/26 08:19:06;;;;;;;4.88;1.58;;;9.30;99.90;;;8.42;93.43;97236.53;5118791;27;20114;-71
2021/05/26 08:21:33;;;;;;;7.18;1.95;;;9.20;99.90;;;8.41;93.36;97243.41;5116486;27;20073;-72
2021/05/26 08:24:01;;;;;;;5.97;1.42;;;9.40;99.90;;;8.62;91.75;97240.88;5108065;27;20031;-71
2021/05/26 08:26:27;;;;;;;8.20;1.73;;;9.40;99.90;;;8.53;91.47;97258.47;5123159;27;20126;-72
2021/05/26 08:28:54;;;;;;;2.88;1.05;;;9.40;99.90;;;8.60;92.38;97246.13;5121554;27;20119;-72
2021/05/26 08:31:22;;;;;;;5.95;1.13;;;9.60;99.90;;;8.47;93.25;97250.13;5127505;27;20039;-72
2021/05/26 08:33:49;;;;;;;3.58;0.82;;;9.60;99.90;;;8.32;94.46;97218.72;5129973;27;20088;-72
2021/05/26 08:36:16;;;;;;;5.18;0.95;;;9.50;99.90;;;8.36;96.63;97230.63;5122963;27;20128;-72
2021/05/26 08:38:43;;;;;;;3.22;1.08;;;9.50;99.90;;;8.30;97.97;97241.25;5109910;28;20123;-72
2021/05/26 08:41:12;;;;;;;3.72;0.80;;;9.50;99.90;;;8.79;93.93;97234.13;5107148;27;20047;-72
2021/05/26 08:43:41;;;;;;;4.43;0.85;;;9.40;99.90;;;8.23;95.19;97252.69;5126025;27;20068;-72
2021/05/26 08:46:09;;;;;;;5.07;1.02;;;9.50;99.90;;;8.54;95.82;97231.69;5096292;27;20055;-72
2021/05/26 08:48:37;;;;;;;4.68;0.90;;;9.50;99.90;;;8.54;94.93;97229.09;5125493;27;20027;-72
2021/05/26 08:51:11;;;;;;;2.83;0.80;;;9.50;99.90;;;8.48;94.79;97233.69;5108537;27;20140;-73
2021/05/26 08:53:38;;;;;;;3.15;0.80;;;9.50;99.90;;;8.43;100.00;97228.69;5109771;27;20508;-73
2021/05/26 08:56:06;;;;;;;1.60;0.50;;;9.60;99.90;;;8.56;100.00;97234.22;5100814;27;20136;-72
2021/05/26 08:58:43;;;;;;;2.90;0.82;;;9.50;99.90;;;8.36;96.81;97215.13;5126605;27;20031;-72
2021/05/26 09:01:14;;;;;;;3.47;0.70;;;9.50;99.90;;;8.51;95.60;97218.88;5117897;27;20069;-72
2021/05/26 09:03:41;;;;;;;2.78;0.70;;;9.50;99.90;;;8.60;93.91;97220.28;5104385;27;20389;-72
2021/05/26 09:06:13;;;;;;;1.80;0.80;;;9.50;99.90;;;8.32;94.69;97215.31;5091503;28;20308;-72
2021/05/26 09:08:53;;;;;;;2.92;1.10;;;9.50;99.90;;;8.63;94.92;97214.13;5114955;27;20074;-72
2021/05/26 09:11:33;;;;;;;2.30;0.60;;;9.50;99.90;;;8.48;95.25;97215.56;5122315;27;20565;-73
2021/05/26 09:14:12;;;;;;;2.58;0.90;;;9.60;99.90;;;8.47;95.79;97217.31;5105150;28;20046;-73
2021/05/26 09:16:39;;;;;;;3.15;0.73;;;9.60;99.90;;;8.54;96.16;97213.59;5099469;28;20066;-73
2021/05/26 09:19:10;;;;;;;2.33;0.70;;;9.70;99.90;;;8.77;95.95;97210.06;5123412;28;20039;-73
2021/05/26 09:21:50;;;;;;;1.73;0.70;;;9.70;99.90;;;9.04;94.51;97204.63;5093948;28;20081;-73
2021/05/26 09:24:19;;;;;;;3.15;0.70;;;9.70;99.90;;;8.71;94.68;97212.91;5122020;28;20540;-73
2021/05/26 09:27:19;;;;;;;1.80;0.73;;;9.80;99.90;;;8.69;94.98;97204.38;5117865;28;20042;-73
2021/05/26 09:29:46;;;;;;;1.60;0.90;;;9.80;99.90;;;8.59;95.75;97198.72;5092434;28;20405;-73
2021/05/26 09:32:21;;;;;;;2.28;0.70;;;9.80;99.90;;;8.63;94.80;97202.03;5119752;28;20074;-72
2021/05/26 09:34:52;;;;;;;2.03;0.70;;;9.70;99.90;;;8.52;95.55;97209.38;5086370;28;20557;-72
2021/05/26 09:37:23;;;;;;;2.28;0.90;;;9.70;99.90;;;8.82;100.00;97196.09;5118993;28;20119;-72
2021/05/26 09:39:51;;;;;;;1.52;0.60;;;9.60;99.90;;;8.64;100.00;97215.78;5123521;28;20036;-72
2021/05/26 09:42:27;;;;;;;2.42;0.70;;;9.50;99.90;;;8.57;100.00;97197.09;5120148;28;20139;-71
2021/05/26 09:45:20;;;;;;;2.35;0.80;;;9.60;99.90;;;8.43;100.00;97210.59;5109309;28;20027;-72
2021/05/26 09:47:55;;;;;;;;;;;9.60;99.90;;;8.72;100.00;97199.06;5108992;28;20100;-72
2021/05/26 09:50:28;;;;;;;1.20;0.55;;;9.70;99.90;;;8.73;100.00;97194.72;5107303;28;19935;-72
2021/05/26 09:53:16;;;;;;;3.00;0.50;;;9.80;99.90;;;8.59;100.00;97192.69;5105665;28;20458;-72
2021/05/26 09:55:48;;;;;;;4.22;0.60;;;9.80;99.90;;;8.47;100.00;97385.44;5093409;28;20043;-72
2021/05/26 09:58:17;;;;;;;2.25;0.50;;;9.90;99.90;;;8.55;100.00;97209.25;5106196;27;20120;-72
2021/05/26 10:00:47;;;;;;;0.68;0.40;;;9.70;99.90;;;8.42;100.00;97213.25;5105577;27;20591;-72
2021/05/26 10:03:14;;;;;;;1.73;0.55;;;9.70;99.90;;;8.61;100.00;97193.47;5116315;27;20052;-73
2021/05/26 10:05:41;;;;;;;2.50;0.50;;;9.70;99.90;;;8.67;100.00;97187.22;5130483;27;20055;-72
2021/05/26 10:08:14;;;;;;;1.95;0.60;;;9.60;99.90;;;8.81;100.00;97200.44;5125611;27;20370;-72
2021/05/26 10:10:46;;;;;;;;;;;9.70;99.90;;;8.76;100.00;97199.78;5131220;27;20038;-72
2021/05/26 10:13:14;;;;;;;1.05;0.52;;;9.70;99.90;;;8.68;100.00;97196.66;5106474;27;19923;-72
2021/05/26 10:15:42;;;;;;;1.33;0.45;;;9.80;99.90;;;9.03;100.00;97186.56;5105218;27;20042;-73
2021/05/26 10:18:10;;;;;;;2.08;0.55;;;9.90;99.90;;;8.94;100.00;97164.50;5127905;27;20039;-72
2021/05/26 10:20:39;;;;;;;1.27;0.50;;;10.00;99.90;;;8.90;100.00;97194.03;5129050;27;20663;-71
2021/05/26 10:23:07;;;;;;;2.05;0.65;;;9.90;99.90;;;9.07;100.00;97164.81;5101529;28;20458;-73
2021/05/26 10:25:42;;;;;;;0.93;0.52;;;10.00;99.90;;;8.99;100.00;97172.94;5117642;27;20292;-72
2021/05/26 10:28:31;;;;;;;2.03;0.50;;;10.00;99.90;;;9.04;100.00;97201.22;5127385;27;20053;-71
2021/05/26 10:31:02;;;;;;;1.15;0.40;;;9.90;99.90;;;9.03;100.00;97177.06;5107454;27;20043;-72
2021/05/26 10:33:44;;;;;;;1.08;0.55;;;9.90;99.90;;;8.90;100.00;97204.38;5101818;27;20120;-72
2021/05/26 10:36:12;;;;;;;2.38;0.60;;;9.90;99.90;;;8.92;99.92;97189.63;5117495;27;20465;-72
2021/05/26 10:38:59;;;;;;;3.85;0.80;;;9.90;99.90;;;8.84;99.14;97174.41;5112002;27;20031;-72